Time;durP1;ratioP1;P1;durP2;ratioP2;P2;SDS_P1;SDS_P2;PMS_P1;PMS_P2;Temp;Humidity;BMP_temperature;BMP_pressure;BME280_temperature;BME280_humidity;BME280_pressure;Samples;Min_cycle;Max_cycle;Signal;HPM_P1;HPM_P2
2021/06/09 00:00:54;;;;;;;10.63;7.20;;;537.60;1331.20;;;;;;5096348;28;20481;-65
2021/06/09 00:03:21;;;;;;;15.45;7.90;;;537.60;1331.20;;;;;;5096477;28;20049;-65
2021/06/09 00:05:48;;;;;;;9.25;6.88;;;512.90;1331.20;;;;;;5095422;28;20414;-65
2021/06/09 00:08:14;;;;;;;12.65;6.65;;;512.90;1331.20;;;;;;5096447;28;20377;-65
2021/06/09 00:10:41;;;;;;;9.43;7.03;;;512.80;1331.20;;;;;;5096320;28;20433;-65
2021/06/09 00:13:06;;;;;;;11.10;6.10;;;512.80;1331.20;;;;;;5096155;28;20111;-65
2021/06/09 00:15:33;;;;;;;13.82;6.85;;;512.80;1331.20;;;;;;5095716;28;20103;-64
2021/06/09 00:17:58;;;;;;;9.70;6.07;;;512.80;1331.20;;;;;;5096326;28;20111;-65
2021/06/09 00:20:26;;;;;;;10.20;6.15;;;512.70;1331.20;;;;;;5096073;28;20426;-64
2021/06/09 00:22:54;;;;;;;11.25;6.10;;;512.70;1331.20;;;;;;5095820;28;20107;-64
2021/06/09 00:25:20;;;;;;;10.60;6.18;;;512.70;1331.20;;;;;;5095959;28;20489;-65
2021/06/09 00:27:48;;;;;;;9.80;6.05;;;512.70;1331.20;;;;;;5095880;28;20028;-64
2021/06/09 00:30:29;;;;;;;15.32;7.72;;;512.70;1331.20;;;;;;5096024;28;20020;-64
2021/06/09 00:32:57;;;;;;;10.98;7.55;;;512.70;1331.20;;;;;;5096061;28;20020;-65
2021/06/09 00:35:22;;;;;;;11.77;6.30;;;512.60;1356.80;;;;;;5095953;28;20059;-65
2021/06/09 00:37:48;;;;;;;12.15;6.38;;;512.60;1331.20;;;;;;5095526;28;20068;-64
2021/06/09 00:40:14;;;;;;;13.98;5.65;;;512.60;1331.20;;;;;;5095717;28;20069;-64
2021/06/09 00:42:40;;;;;;;12.25;5.88;;;512.60;1356.80;;;;;;5096213;28;20020;-65
2021/06/09 00:45:08;;;;;;;12.98;5.47;;;512.60;1356.80;;;;;;5095778;28;20013;-65
2021/06/09 00:47:34;;;;;;;10.48;4.70;;;512.60;1356.80;;;;;;5095609;28;20032;-65
2021/06/09 00:50:00;;;;;;;9.65;4.90;;;512.60;1356.80;;;;;;5095589;28;20021;-65
2021/06/09 00:52:28;;;;;;;6.35;4.68;;;512.60;1356.80;;;;;;5095346;28;20024;-64
2021/06/09 00:54:54;;;;;;;5.45;4.32;;;512.60;1331.20;;;;;;5095292;28;20106;-65
2021/06/09 00:57:22;;;;;;;6.03;4.47;;;512.50;1356.80;;;;;;5095386;28;20043;-65
2021/06/09 00:59:48;;;;;;;9.00;4.82;;;512.50;1356.80;;;;;;5095519;28;20040;-65
2021/06/09 01:02:14;;;;;;;7.32;4.85;;;512.50;1356.80;;;;;;5093986;28;20060;-65
2021/06/09 01:04:40;;;;;;;11.95;5.03;;;512.50;1356.80;;;;;;5095243;28;20031;-64
2021/06/09 01:07:08;;;;;;;7.50;4.82;;;512.50;1356.80;;;;;;5095378;28;20023;-65
2021/06/09 01:09:34;;;;;;;9.93;4.43;;;512.40;1356.80;;;;;;5094910;28;20039;-64
2021/06/09 01:12:00;;;;;;;6.18;4.53;;;512.50;1356.80;;;;;;5093854;28;20028;-64
2021/06/09 01:14:26;;;;;;;8.90;4.18;;;512.40;1356.80;;;;;;5095007;28;20415;-64
2021/06/09 01:16:53;;;;;;;8.00;4.50;;;512.50;1356.80;;;;;;5094164;28;20035;-64
2021/06/09 01:19:20;;;;;;;5.53;4.60;;;512.40;1356.80;;;;;;5095007;28;20417;-64
2021/06/09 01:21:47;;;;;;;11.05;4.45;;;512.30;1356.80;;;;;;5094716;28;20016;-64
2021/06/09 01:24:13;;;;;;;7.07;4.20;;;512.30;1356.80;;;;;;5094719;28;20052;-65
2021/06/09 01:26:40;;;;;;;5.38;4.28;;;512.30;1356.80;;;;;;5095313;28;20420;-65
2021/06/09 01:29:07;;;;;;;5.22;4.65;;;512.30;1356.80;;;;;;5094677;28;20077;-64
2021/06/09 01:31:33;;;;;;;7.55;4.72;;;512.20;1356.80;;;;;;5094755;28;20035;-65
2021/06/09 01:34:05;;;;;;;12.30;4.90;;;512.20;1356.80;;;;;;5094721;28;20031;-64
2021/06/09 01:36:41;;;;;;;6.40;4.47;;;512.20;1382.40;;;;;;5095177;28;20080;-64
2021/06/09 01:39:17;;;;;;;4.88;4.10;;;512.20;1382.40;;;;;;5093050;28;20047;-65
2021/06/09 01:41:47;;;;;;;7.80;4.72;;;512.20;1382.40;;;;;;5094476;28;20056;-64
2021/06/09 01:44:14;;;;;;;7.47;4.20;;;512.10;1382.40;;;;;;5094635;28;20032;-64
2021/06/09 01:46:41;;;;;;;8.23;4.53;;;512.10;1382.40;;;;;;5094487;28;20052;-64
2021/06/09 01:49:12;;;;;;;7.30;5.03;;;512.00;1382.40;;;;;;5094514;28;20055;-64
2021/06/09 01:51:38;;;;;;;14.77;5.10;;;512.00;1408.00;;;;;;5094451;28;20031;-64
2021/06/09 01:54:06;;;;;;;5.25;4.75;;;512.10;1382.40;;;;;;5094191;28;20031;-65
2021/06/09 01:56:32;;;;;;;7.93;4.80;;;512.10;1382.40;;;;;;5094361;28;20024;-64
2021/06/09 01:58:58;;;;;;;6.10;4.65;;;512.00;1382.40;;;;;;5094168;28;20028;-65
2021/06/09 02:01:24;;;;;;;11.45;4.50;;;512.00;1382.40;;;;;;5094380;28;20031;-64
2021/06/09 02:03:50;;;;;;;7.97;5.03;;;512.00;1382.40;;;;;;5094244;28;20121;-64
2021/06/09 02:06:15;;;;;;;7.20;4.90;;;512.00;1408.00;;;;;;5093910;28;20028;-64
2021/06/09 02:08:41;;;;;;;6.28;4.80;;;512.00;1408.00;;;;;;5093934;28;20051;-64
2021/06/09 02:11:07;;;;;;;9.07;4.93;;;487.30;1408.00;;;;;;5093982;28;20137;-64
2021/06/09 02:13:35;;;;;;;6.45;4.75;;;487.30;1408.00;;;;;;5094082;28;20036;-65
2021/06/09 02:16:01;;;;;;;7.70;5.25;;;487.20;1433.60;;;;;;5094150;28;20062;-64
2021/06/09 02:18:28;;;;;;;10.18;5.55;;;487.20;1408.00;;;;;;5093892;28;20031;-64
2021/06/09 02:20:59;;;;;;;7.00;4.95;;;487.20;1433.60;;;;;;5093885;28;20067;-65
2021/06/09 02:23:28;;;;;;;13.15;5.28;;;487.20;1433.60;;;;;;5093789;28;20068;-65
2021/06/09 02:25:56;;;;;;;8.45;5.43;;;487.20;1433.60;;;;;;5093952;28;20028;-64
2021/06/09 02:28:24;;;;;;;7.35;5.45;;;487.20;1433.60;;;;;;5093635;28;20024;-64
2021/06/09 02:30:50;;;;;;;6.85;5.85;;;487.10;1433.60;;;;;;5094177;28;20099;-65
2021/06/09 02:33:19;;;;;;;10.13;5.75;;;487.10;1433.60;;;;;;5094054;28;20055;-64
2021/06/09 02:35:45;;;;;;;7.82;5.53;;;487.10;1459.20;;;;;;5093928;28;20103;-64
2021/06/09 02:38:13;;;;;;;11.57;5.95;;;487.10;1459.20;;;;;;5093577;28;20384;-64
2021/06/09 02:40:40;;;;;;;6.00;5.32;;;487.10;1459.20;;;;;;5093741;28;20351;-64
2021/06/09 02:43:06;;;;;;;12.82;6.20;;;487.10;1459.20;;;;;;5093802;28;20028;-64
2021/06/09 02:45:33;;;;;;;11.77;5.78;;;487.00;1459.20;;;;;;5093616;28;20020;-64
2021/06/09 02:48:06;;;;;;;8.57;5.90;;;487.00;1459.20;;;;;;5093787;28;20032;-64
2021/06/09 02:50:32;;;;;;;9.90;5.95;;;486.90;1459.20;;;;;;5092521;28;20060;-65
2021/06/09 02:53:16;;;;;;;10.10;5.97;;;486.90;1459.20;;;;;;5092971;28;20434;-64
2021/06/09 02:55:59;;;;;;;12.73;5.45;;;486.90;1484.80;;;;;;5091820;28;20095;-64
2021/06/09 02:58:42;;;;;;;14.75;6.20;;;486.90;1459.20;;;;;;5092111;28;20051;-65
2021/06/09 03:01:19;;;;;;;6.95;6.03;;;486.90;1484.80;;;;;;5093505;28;20024;-64
2021/06/09 03:04:32;;;;;;;13.70;6.10;;;486.80;1484.80;;;;;;5093063;28;20374;-64
2021/06/09 03:07:31;;;;;;;10.55;5.80;;;486.80;1484.80;;;;;;5030664;28;20084;-64
2021/06/09 03:10:03;;;;;;;22.65;8.02;;;486.80;1484.80;;;;;;4990576;28;20049;-64
2021/06/09 03:12:42;;;;;;;25.42;7.15;;;486.80;1510.40;;;;;;4987258;28;20027;-64
2021/06/09 03:15:38;;;;;;;18.38;6.93;;;486.80;1510.40;;;;;;4975190;28;20584;-65
2021/06/09 03:18:19;;;;;;;18.08;6.88;;;486.80;1510.40;;;;;;4972408;28;20046;-64
2021/06/09 03:20:50;;;;;;;12.80;6.57;;;486.80;1510.40;;;;;;4972485;28;20034;-64
2021/06/09 03:23:21;;;;;;;10.35;5.82;;;486.80;1510.40;;;;;;4971980;28;20101;-64
2021/06/09 03:26:06;;;;;;;10.82;6.43;;;486.80;1510.40;;;;;;4972229;28;20490;-64
2021/06/09 03:29:10;;;;;;;10.05;6.00;;;486.80;1510.40;;;;;;4972207;28;20520;-64
2021/06/09 03:31:42;;;;;;;15.02;6.35;;;486.80;1510.40;;;;;;4971990;28;20038;-64
2021/06/09 03:34:16;;;;;;;9.32;5.50;;;486.80;1510.40;;;;;;4972338;28;20130;-64
2021/06/09 03:36:43;;;;;;;10.07;6.35;;;486.80;1510.40;;;;;;4972718;28;20122;-64
2021/06/09 03:39:12;;;;;;;12.00;6.63;;;486.80;1510.40;;;;;;4972312;28;20042;-64
2021/06/09 03:41:42;;;;;;;11.02;6.38;;;486.80;1510.40;;;;;;4977982;28;20033;-64
2021/06/09 03:44:10;;;;;;;10.23;5.78;;;486.80;1510.40;;;;;;4995249;28;20027;-64
2021/06/09 03:46:38;;;;;;;11.32;6.22;;;486.90;1510.40;;;;;;5047299;28;20037;-64
2021/06/09 03:49:11;;;;;;;10.18;7.55;;;486.90;1510.40;;;;;;5076564;28;20442;-64
2021/06/09 03:51:41;;;;;;;12.68;7.15;;;486.90;1510.40;;;;;;5076465;28;20107;-65
2021/06/09 03:54:08;;;;;;;13.98;7.18;;;486.90;1510.40;;;;;;5076306;28;20032;-64
2021/06/09 03:56:36;;;;;;;16.90;6.63;;;486.90;1510.40;;;;;;5076134;28;20020;-64
2021/06/09 03:59:04;;;;;;;7.63;6.40;;;486.90;1484.80;;;;;;5076274;28;20045;-64
2021/06/09 04:01:35;;;;;;;12.13;6.10;;;487.00;1510.40;;;;;;5076124;28;20021;-64
2021/06/09 04:04:03;;;;;;;9.70;6.30;;;487.10;1510.40;;;;;;5076209;28;20036;-65
2021/06/09 04:06:31;;;;;;;12.63;6.18;;;487.00;1510.40;;;;;;5076060;28;20052;-64
2021/06/09 04:08:59;;;;;;;8.23;6.25;;;487.10;1484.80;;;;;;5076116;28;20028;-64
2021/06/09 04:11:26;;;;;;;14.15;6.32;;;487.10;1484.80;;;;;;5076191;28;20024;-64
2021/06/09 04:13:55;;;;;;;10.10;6.00;;;487.10;1484.80;;;;;;5075792;28;20048;-65
2021/06/09 04:16:26;;;;;;;13.88;6.68;;;487.20;1510.40;;;;;;5076012;28;20040;-65
2021/06/09 04:18:54;;;;;;;14.52;6.28;;;487.20;1484.80;;;;;;5075739;28;20043;-64
2021/06/09 04:21:20;;;;;;;7.32;5.93;;;487.20;1510.40;;;;;;5075910;28;20048;-64
2021/06/09 04:23:46;;;;;;;10.65;5.53;;;487.30;1484.80;;;;;;5075827;28;20494;-64
2021/06/09 04:26:16;;;;;;;9.80;5.90;;;487.30;1484.80;;;;;;5075754;28;20374;-66
2021/06/09 04:28:46;;;;;;;8.93;5.78;;;487.30;1484.80;;;;;;5074253;28;20028;-65
2021/06/09 04:31:13;;;;;;;9.70;5.85;;;512.00;1484.80;;;;;;5075828;28;20021;-64
2021/06/09 04:33:39;;;;;;;13.57;5.68;;;512.00;1484.80;;;;;;5075524;28;20033;-65
2021/06/09 04:36:10;;;;;;;11.07;6.05;;;512.10;1484.80;;;;;;5075733;28;20078;-65
2021/06/09 04:38:38;;;;;;;7.35;5.85;;;512.10;1484.80;;;;;;5075405;28;20056;-64
2021/06/09 04:41:03;;;;;;;10.23;6.18;;;512.20;1484.80;;;;;;5075211;28;20036;-64
2021/06/09 04:43:29;;;;;;;8.98;6.43;;;512.30;1484.80;;;;;;5075302;28;20028;-65
2021/06/09 04:45:55;;;;;;;11.90;6.10;;;512.50;1459.20;;;;;;5075477;28;20107;-65
2021/06/09 04:48:21;;;;;;;8.00;6.15;;;512.60;1459.20;;;;;;5075483;28;20042;-64
2021/06/09 04:50:49;;;;;;;7.65;6.05;;;512.80;1459.20;;;;;;5075282;28;20021;-66
2021/06/09 04:53:16;;;;;;;10.65;6.50;;;537.60;1459.20;;;;;;5075184;28;20156;-64
2021/06/09 04:55:48;;;;;;;9.40;6.25;;;537.70;1433.60;;;;;;5075058;28;20455;-65
2021/06/09 04:58:15;;;;;;;8.80;6.10;;;538.00;1433.60;;;;;;5075219;28;20041;-65
2021/06/09 05:00:43;;;;;;;10.07;6.20;;;538.20;1408.00;;;;;;5075073;28;20100;-64
2021/06/09 05:03:08;;;;;;;10.80;6.00;;;538.30;1408.00;;;;;;5075112;28;20166;-64
2021/06/09 05:05:34;;;;;;;6.82;6.13;;;538.50;1382.40;;;;;;5075070;28;20159;-65
2021/06/09 05:08:00;;;;;;;7.45;6.22;;;563.20;1408.00;;;;;;5075110;28;20024;-64
2021/06/09 05:10:26;;;;;;;8.50;6.10;;;563.40;1382.40;;;;;;5074860;28;20020;-66
2021/06/09 05:12:55;;;;;;;12.25;5.93;;;563.60;1382.40;;;;;;5073439;28;20028;-66
2021/06/09 05:15:25;;;;;;;10.50;5.95;;;563.80;1356.80;;;;;;5074931;28;20037;-65
2021/06/09 05:17:51;;;;;;;8.30;5.95;;;563.90;1356.80;;;;;;5074779;28;20075;-65
2021/06/09 05:20:28;;;;;;;10.27;5.32;;;564.10;1356.80;;;;;;5074663;28;20466;-65
2021/06/09 05:23:07;;;;;;;9.10;5.78;;;588.80;1331.20;;;;;;5074398;28;20432;-65
2021/06/09 05:25:35;;;;;;;12.35;5.78;;;589.00;1331.20;;;;;;5074498;28;20036;-64
2021/06/09 05:28:02;;;;;;;14.93;5.85;;;589.20;1331.20;;;;;;5074484;28;20032;-66
2021/06/09 05:30:30;;;;;;;14.10;6.43;;;589.30;1305.60;;;;;;5074313;28;20027;-66
2021/06/09 05:32:57;;;;;;;10.85;5.65;;;589.40;1305.60;;;;;;5074186;28;20112;-66
2021/06/09 05:35:23;;;;;;;16.42;6.32;;;589.60;1305.60;;;;;;5074451;28;20071;-65
2021/06/09 05:37:49;;;;;;;9.90;5.32;;;614.40;1305.60;;;;;;5074918;28;20139;-65
2021/06/09 05:40:17;;;;;;;19.13;5.95;;;614.40;1280.00;;;;;;5074218;28;20024;-65
2021/06/09 05:42:44;;;;;;;16.63;5.22;;;614.60;1280.00;;;;;;5074214;28;20028;-64
2021/06/09 05:45:10;;;;;;;6.90;4.93;;;614.70;1280.00;;;;;;5073654;28;20024;-65
2021/06/09 05:47:45;;;;;;;7.72;5.50;;;614.90;1254.40;;;;;;5073962;28;20024;-66
2021/06/09 05:50:17;;;;;;;6.72;4.85;;;614.90;1254.40;;;;;;5074125;28;20025;-65
2021/06/09 05:52:45;;;;;;;7.35;4.78;;;615.20;1228.80;;;;;;5074096;28;20033;-66
2021/06/09 05:55:22;;;;;;;8.27;4.68;;;615.30;1203.20;;;;;;5073976;28;20025;-66
2021/06/09 05:57:49;;;;;;;7.28;4.60;;;640.10;1177.60;;;;;;5074151;28;20550;-65
2021/06/09 06:00:18;;;;;;;5.65;4.43;;;640.20;1177.60;;;;;;5074166;28;20107;-66
2021/06/09 06:02:45;;;;;;;8.57;4.93;;;640.40;1177.60;;;;;;5073463;28;20028;-65
2021/06/09 06:05:11;;;;;;;9.48;5.00;;;640.60;1152.00;;;;;;5074350;28;20442;-64
2021/06/09 06:07:38;;;;;;;10.48;4.85;;;640.80;1152.00;;;;;;5074093;28;20031;-65
2021/06/09 06:10:06;;;;;;;7.82;4.80;;;640.80;1126.40;;;;;;5073699;28;20024;-66
2021/06/09 06:12:33;;;;;;;9.55;4.55;;;665.60;1152.00;;;;;;5074010;28;20020;-66
2021/06/09 06:14:59;;;;;;;9.63;4.57;;;665.70;1152.00;;;;;;5073884;28;20462;-66
2021/06/09 06:17:24;;;;;;;7.72;4.93;;;665.90;1126.40;;;;;;5073711;28;20086;-65
2021/06/09 06:19:51;;;;;;;8.25;4.68;;;666.10;1152.00;;;;;;5073645;28;20062;-65
2021/06/09 06:22:19;;;;;;;5.47;4.97;;;666.20;1126.40;;;;;;5073435;28;20107;-65
2021/06/09 06:24:47;;;;;;;20.15;4.72;;;666.30;1126.40;;;;;;5073542;28;20067;-65
2021/06/09 06:27:15;;;;;;;10.65;5.32;;;691.20;1126.40;;;;;;5089162;28;20033;-66
2021/06/09 06:29:44;;;;;;;18.10;4.57;;;691.30;1100.80;;;;;;5073504;28;20035;-65
2021/06/09 06:32:12;;;;;;;5.32;3.92;;;691.40;1100.80;;;;;;5073401;28;20032;-66
2021/06/09 06:34:50;;;;;;;8.25;4.72;;;691.60;1100.80;;;;;;5073811;28;20047;-66
2021/06/09 06:37:21;;;;;;;8.52;4.55;;;691.70;1075.20;;;;;;5073409;28;20475;-64
2021/06/09 06:39:47;;;;;;;7.25;4.38;;;691.90;1075.20;;;;;;5073404;28;20028;-65
2021/06/09 06:42:13;;;;;;;6.28;4.32;;;692.00;1075.20;;;;;;5073652;28;20020;-66
2021/06/09 06:44:41;;;;;;;6.35;4.20;;;716.80;1100.80;;;;;;5073257;28;20070;-65
2021/06/09 06:47:08;;;;;;;6.05;4.10;;;716.90;1075.20;;;;;;5073551;28;20027;-65
2021/06/09 06:49:36;;;;;;;6.85;4.75;;;717.00;1049.60;;;;;;5073513;28;20039;-65
2021/06/09 06:52:03;;;;;;;8.85;5.00;;;717.20;1049.60;;;;;;5073283;28;20021;-66
2021/06/09 06:54:29;;;;;;;5.80;4.55;;;717.40;1024.00;;;;;;5073241;28;20027;-65
2021/06/09 06:56:57;;;;;;;10.63;4.00;;;717.50;998.40;;;;;;5073496;28;20392;-65
2021/06/09 06:59:24;;;;;;;5.40;4.07;;;717.60;998.40;;;;;;5073519;28;20041;-67
2021/06/09 07:01:50;;;;;;;8.05;4.30;;;717.70;998.40;;;;;;5073284;28;20032;-64
2021/06/09 07:04:17;;;;;;;5.80;3.90;;;742.50;998.40;;;;;;5073245;28;20100;-70
2021/06/09 07:06:44;;;;;;;6.43;4.60;;;742.60;998.40;;;;;;5083743;28;20104;-69
2021/06/09 07:09:11;;;;;;;9.77;4.43;;;742.70;998.40;;;;;;5089984;28;20024;-68
2021/06/09 07:11:38;;;;;;;7.32;4.50;;;742.80;972.80;;;;;;5093153;28;20043;-70
2021/06/09 07:14:06;;;;;;;6.50;4.28;;;743.00;972.80;;;;;;5094484;28;20024;-70
2021/06/09 07:16:33;;;;;;;8.20;4.50;;;743.10;972.80;;;;;;5094165;28;20050;-70
2021/06/09 07:19:05;;;;;;;4.97;4.00;;;743.20;972.80;;;;;;5096816;28;20036;-71
2021/06/09 07:21:32;;;;;;;13.98;4.60;;;743.30;947.20;;;;;;5093994;28;20024;-70
2021/06/09 07:24:03;;;;;;;25.92;6.25;;;768.10;947.20;;;;;;5096291;28;20036;-69
2021/06/09 07:26:32;;;;;;;11.55;5.03;;;768.20;947.20;;;;;;5094225;28;20016;-69
2021/06/09 07:28:59;;;;;;;7.85;4.10;;;768.30;947.20;;;;;;5097181;28;20077;-69
2021/06/09 07:31:28;;;;;;;8.65;4.28;;;768.50;921.60;;;;;;5096843;28;20054;-69
2021/06/09 07:33:55;;;;;;;7.53;4.30;;;768.70;921.60;;;;;;5096943;28;20043;-70
2021/06/09 07:36:27;;;;;;;6.47;4.15;;;768.90;896.00;;;;;;5097107;28;20401;-69
2021/06/09 07:39:03;;;;;;;5.60;4.07;;;793.60;896.00;;;;;;5096206;28;20042;-68
2021/06/09 07:41:32;;;;;;;8.88;4.40;;;793.80;896.00;;;;;;5094917;28;20016;-68
2021/06/09 07:43:59;;;;;;;4.72;3.92;;;794.00;896.00;;;;;;5096276;28;20046;-70
2021/06/09 07:46:29;;;;;;;6.85;4.40;;;794.10;870.40;;;;;;5096482;28;20024;-70
2021/06/09 07:49:03;;;;;;;8.68;4.35;;;794.30;870.40;;;;;;5096592;28;20486;-69
2021/06/09 07:51:31;;;;;;;11.75;4.03;;;794.40;870.40;;;;;;5096718;28;20028;-69
2021/06/09 07:54:00;;;;;;;6.97;4.18;;;819.20;870.40;;;;;;5095042;28;20485;-70
2021/06/09 07:56:32;;;;;;;28.10;7.72;;;819.30;870.40;;;;;;5096724;28;20109;-70
2021/06/09 07:59:04;;;;;;;15.95;5.70;;;819.50;870.40;;;;;;5096410;28;20028;-71
2021/06/09 08:01:31;;;;;;;19.38;9.65;;;819.60;844.80;;;;;;5096511;28;20024;-71
2021/06/09 08:03:58;;;;;;;73.38;53.35;;;819.70;844.80;;;;;;5096497;28;20497;-71
2021/06/09 08:06:25;;;;;;;29.20;19.30;;;819.90;844.80;;;;;;5096023;28;20028;-72
2021/06/09 08:08:51;;;;;;;15.57;8.98;;;820.00;844.80;;;;;;5096297;28;20028;-71
2021/06/09 08:11:17;;;;;;;26.00;6.53;;;820.10;819.20;;;;;;5096565;28;20028;-71
2021/06/09 08:13:44;;;;;;;8.82;4.55;;;844.80;844.80;;;;;;5096556;28;20110;-72
2021/06/09 08:16:15;;;;;;;10.23;4.50;;;845.00;844.80;;;;;;5096314;28;20032;-71
2021/06/09 08:18:41;;;;;;;16.83;4.75;;;845.00;819.20;;;;;;5096114;28;20036;-71
2021/06/09 08:21:15;;;;;;;14.18;4.70;;;845.10;793.60;;;;;;5096207;28;20025;-72
2021/06/09 08:23:44;;;;;;;7.57;3.88;;;845.20;793.60;;;;;;5095856;28;20138;-71
2021/06/09 08:26:12;;;;;;;14.00;4.93;;;845.30;793.60;;;;;;5095343;28;20028;-72
2021/06/09 08:28:40;;;;;;;8.95;4.22;;;845.30;793.60;;;;;;5096055;28;20047;-71
2021/06/09 08:31:08;;;;;;;8.57;4.30;;;845.50;768.00;;;;;;5096013;28;20020;-71
2021/06/09 08:33:36;;;;;;;5.35;3.70;;;845.70;793.60;;;;;;5096094;28;20034;-71
2021/06/09 08:36:03;;;;;;;5.90;3.50;;;870.40;768.00;;;;;;5095628;28;20082;-71
2021/06/09 08:38:29;;;;;;;9.93;4.78;;;870.40;768.00;;;;;;5095560;28;20486;-72
2021/06/09 08:40:55;;;;;;;9.52;4.25;;;870.50;768.00;;;;;;5094410;28;20042;-71
2021/06/09 08:43:22;;;;;;;10.65;4.28;;;870.60;742.40;;;;;;5095975;28;20039;-72
2021/06/09 08:45:49;;;;;;;12.07;4.20;;;870.60;742.40;;;;;;5095087;28;20054;-72
2021/06/09 08:48:17;;;;;;;15.85;4.30;;;870.80;742.40;;;;;;5095354;28;20020;-70
2021/06/09 08:50:44;;;;;;;8.02;3.70;;;870.80;742.40;;;;;;5092246;28;20023;-70
2021/06/09 08:53:11;;;;;;;14.13;3.80;;;871.00;716.80;;;;;;5095161;28;20024;-71
2021/06/09 08:55:37;;;;;;;12.30;3.92;;;871.00;691.20;;;;;;5094704;28;20024;-72
2021/06/09 08:58:06;;;;;;;11.68;3.75;;;871.00;716.80;;;;;;5094943;28;20423;-72
2021/06/09 09:00:33;;;;;;;16.73;4.38;;;871.20;691.20;;;;;;5094748;28;20095;-71
2021/06/09 09:03:02;;;;;;;7.50;3.70;;;871.20;691.20;;;;;;5094911;28;20043;-72
2021/06/09 09:05:28;;;;;;;6.00;3.67;;;871.20;665.60;;;;;;5094894;28;20467;-68
2021/06/09 09:07:57;;;;;;;4.57;3.38;;;871.30;691.20;;;;;;5095215;28;20032;-72
2021/06/09 09:10:24;;;;;;;5.57;3.80;;;871.30;691.20;;;;;;5090838;28;20024;-73
2021/06/09 09:12:50;;;;;;;8.57;3.78;;;896.00;691.20;;;;;;5095428;28;20032;-72
2021/06/09 09:15:16;;;;;;;4.50;3.40;;;896.10;665.60;;;;;;5093000;28;20036;-68
2021/06/09 09:17:51;;;;;;;9.55;3.80;;;896.20;665.60;;;;;;5093996;28;20059;-72
2021/06/09 09:20:24;;;;;;;11.27;3.88;;;896.20;640.00;;;;;;5093635;28;20012;-72
2021/06/09 09:22:52;;;;;;;9.93;3.40;;;896.30;640.00;;;;;;5093131;28;20035;-72
2021/06/09 09:25:20;;;;;;;13.30;4.07;;;896.30;640.00;;;;;;5093428;28;20028;-72
2021/06/09 09:28:23;;;;;;;6.57;3.40;;;896.40;640.00;;;;;;5093542;28;20027;-68
2021/06/09 09:30:49;;;;;;;4.63;3.15;;;896.50;614.40;;;;;;5011023;28;20025;-71
2021/06/09 09:33:21;;;;;;;6.97;3.38;;;896.50;614.40;;;;;;5011180;28;20022;-72
2021/06/09 09:35:50;;;;;;;4.07;3.00;;;896.50;614.40;;;;;;5011329;28;20124;-72
2021/06/09 09:38:28;;;;;;;4.28;3.13;;;896.60;588.80;;;;;;5009520;28;20126;-72
2021/06/09 09:41:10;;;;;;;5.97;2.92;;;896.70;588.80;;;;;;5010622;28;20117;-69
2021/06/09 09:43:57;;;;;;;5.93;3.40;;;896.70;588.80;;;;;;5008203;28;20029;-71
2021/06/09 09:46:33;;;;;;;5.15;3.28;;;921.60;640.00;;;;;;5010430;28;20141;-72
2021/06/09 09:49:08;;;;;;;6.25;3.15;;;896.90;588.80;;;;;;5010000;28;20034;-72
2021/06/09 09:52:00;;;;;;;3.83;2.97;;;921.60;614.40;;;;;;5009381;28;20026;-68
2021/06/09 09:54:28;;;;;;;4.82;3.22;;;921.70;614.40;;;;;;5010839;28;20037;-73
2021/06/09 09:56:55;;;;;;;10.82;3.30;;;921.70;588.80;;;;;;5010893;28;20037;-72
2021/06/09 09:59:28;;;;;;;4.45;2.83;;;921.80;588.80;;;;;;5010949;28;20037;-69
2021/06/09 10:01:55;;;;;;;3.67;3.00;;;921.90;588.80;;;;;;5010494;28;20372;-73
2021/06/09 10:04:29;;;;;;;5.57;2.88;;;921.90;588.80;;;;;;5010869;28;20124;-71
2021/06/09 10:06:56;;;;;;;6.15;3.15;;;921.90;588.80;;;;;;5033874;28;20039;-72
2021/06/09 10:09:23;;;;;;;5.53;3.00;;;922.00;588.80;;;;;;5092413;28;20028;-72
2021/06/09 10:11:50;;;;;;;5.72;3.10;;;922.10;588.80;;;;;;5089843;28;20024;-71
2021/06/09 10:14:19;;;;;;;4.38;3.00;;;922.10;563.20;;;;;;5088075;28;20111;-72
2021/06/09 10:16:47;;;;;;;6.65;3.10;;;922.10;588.80;;;;;;5091975;28;20016;-72
2021/06/09 10:19:14;;;;;;;5.22;2.83;;;922.10;588.80;;;;;;5091962;28;20039;-74
2021/06/09 10:21:56;;;;;;;8.57;3.35;;;922.10;588.80;;;;;;5091570;28;20064;-72
2021/06/09 10:24:24;;;;;;;7.35;2.83;;;922.20;563.20;;;;;;5090068;28;20056;-73
2021/06/09 10:26:59;;;;;;;6.30;3.00;;;922.30;563.20;;;;;;5089275;28;20024;-68
2021/06/09 10:29:29;;;;;;;4.38;2.92;;;922.40;537.60;;;;;;5092155;28;20028;-71
2021/06/09 10:32:04;;;;;;;5.60;3.03;;;922.40;563.20;;;;;;5090058;28;20025;-71
2021/06/09 10:34:33;;;;;;;3.50;3.20;;;922.40;563.20;;;;;;5091356;28;20101;-72
2021/06/09 10:37:01;;;;;;;4.65;2.80;;;922.40;563.20;;;;;;5092287;28;20035;-72
2021/06/09 10:39:29;;;;;;;4.47;2.75;;;922.40;537.60;;;;;;5093630;28;20047;-73
2021/06/09 10:41:57;;;;;;;21.58;4.20;;;922.30;537.60;;;;;;5093579;28;20053;-67
2021/06/09 10:44:26;;;;;;;41.13;4.57;;;922.40;512.00;;;;;;5093568;28;20046;-67
2021/06/09 10:46:58;;;;;;;14.98;2.95;;;922.40;537.60;;;;;;5093776;28;20412;-70
2021/06/09 10:49:24;;;;;;;41.72;4.63;;;922.50;512.00;;;;;;5094715;28;20028;-68
2021/06/09 10:51:53;;;;;;;12.02;3.30;;;922.50;537.60;;;;;;5097910;28;20442;-70
2021/06/09 10:54:24;;;;;;;8.23;2.55;;;922.50;537.60;;;;;;5097794;28;20102;-69
2021/06/09 10:56:51;;;;;;;7.60;2.63;;;922.50;537.60;;;;;;5097785;28;20023;-69
2021/06/09 10:59:19;;;;;;;6.05;2.60;;;947.20;537.60;;;;;;5096135;28;20028;-68
2021/06/09 11:01:48;;;;;;;3.95;3.00;;;947.20;512.00;;;;;;5097474;28;20417;-69
2021/06/09 11:04:14;;;;;;;9.65;3.30;;;947.20;537.60;;;;;;5097807;28;20413;-70
2021/06/09 11:06:50;;;;;;;10.27;3.75;;;947.20;537.60;;;;;;5097702;28;20099;-68
2021/06/09 11:09:28;;;;;;;6.97;2.53;;;947.20;537.60;;;;;;5097580;28;20024;-70
2021/06/09 11:12:12;;;;;;;5.03;2.83;;;947.30;512.00;;;;;;5097396;28;20016;-67
2021/06/09 11:15:00;;;;;;;;;;;947.40;512.00;;;;;;5097842;28;20034;-71
2021/06/09 11:17:52;;;;;;;4.18;2.83;;;947.40;512.00;;;;;;5097265;28;20365;-68
2021/06/09 11:20:26;;;;;;;21.25;4.25;;;947.50;512.00;;;;;;5097425;28;20063;-70
2021/06/09 11:23:03;;;;;;;34.88;4.47;;;947.50;512.00;;;;;;5097040;28;20023;-69
2021/06/09 11:25:41;;;;;;;20.30;3.53;;;947.60;512.00;;;;;;5097318;28;20039;-70
2021/06/09 11:28:13;;;;;;;11.65;2.95;;;947.70;512.00;;;;;;5097295;28;20032;-71
2021/06/09 11:30:42;;;;;;;7.25;2.83;;;947.80;512.00;;;;;;5097066;28;20084;-70
2021/06/09 11:33:26;;;;;;;4.40;2.70;;;947.90;486.40;;;;;;5097266;28;20055;-69
2021/06/09 11:35:57;;;;;;;19.08;3.13;;;948.00;486.40;;;;;;5097351;28;20020;-66
2021/06/09 11:38:28;;;;;;;81.53;6.88;;;972.80;537.60;;;;;;5095670;28;20032;-71
2021/06/09 11:41:04;;;;;;;22.92;3.92;;;972.90;537.60;;;;;;5097104;28;20421;-69
2021/06/09 11:43:37;;;;;;;34.47;5.28;;;973.00;512.00;;;;;;5096698;28;20426;-67
2021/06/09 11:46:07;;;;;;;45.05;6.53;;;973.10;537.60;;;;;;5096939;28;20016;-68
2021/06/09 11:48:34;;;;;;;25.67;4.57;;;972.90;563.20;;;;;;5095645;28;20027;-66
2021/06/09 11:51:15;;;;;;;31.65;4.32;;;972.90;537.60;;;;;;5095174;28;20016;-68
2021/06/09 11:53:44;;;;;;;39.65;4.82;;;972.90;537.60;;;;;;5091824;28;20020;-66
2021/06/09 11:56:16;;;;;;;32.22;5.40;;;972.80;563.20;;;;;;5095194;28;20020;-67
2021/06/09 11:58:44;;;;;;;17.77;3.65;;;948.00;537.60;;;;;;5093084;28;20508;-68
2021/06/09 12:01:13;;;;;;;12.07;2.90;;;947.70;512.00;;;;;;5094442;28;20066;-67
2021/06/09 12:03:42;;;;;;;9.65;3.25;;;947.60;512.00;;;;;;5095791;28;20480;-67
2021/06/09 12:06:16;;;;;;;16.73;3.60;;;947.50;512.00;;;;;;5093653;28;20012;-67
2021/06/09 12:08:43;;;;;;;14.25;3.00;;;947.40;512.00;;;;;;5096032;28;20028;-66
2021/06/09 12:11:09;;;;;;;11.48;3.45;;;947.30;537.60;;;;;;5094939;28;20027;-67
2021/06/09 12:13:35;;;;;;;8.60;2.85;;;947.20;563.20;;;;;;5096442;28;20028;-66
2021/06/09 12:16:07;;;;;;;8.55;3.22;;;922.40;537.60;;;;;;5096855;28;20027;-66
2021/06/09 12:18:34;;;;;;;9.40;2.75;;;922.50;537.60;;;;;;5096030;28;20553;-66
2021/06/09 12:21:09;;;;;;;8.27;2.78;;;947.20;537.60;;;;;;5096234;28;20059;-66
2021/06/09 12:23:35;;;;;;;7.03;2.83;;;947.50;537.60;;;;;;5095729;28;20044;-66
2021/06/09 12:26:03;;;;;;;13.55;3.03;;;947.60;537.60;;;;;;5095754;28;20492;-66
2021/06/09 12:28:28;;;;;;;16.38;3.67;;;947.50;537.60;;;;;;5096127;28;20370;-66
2021/06/09 12:30:57;;;;;;;8.05;3.08;;;947.40;537.60;;;;;;5095918;28;20030;-66